sensor_id;sensor_type;location;lat;lon;timestamp;P1;durP1;ratioP1;P2;durP2;ratioP2
66089;SDS011;53113;45.602;11.904;2022-10-16T00:00:39;58.40;;;38.50;;
66089;SDS011;53113;45.602;11.904;2022-10-16T00:03:07;59.50;;;38.70;;
66089;SDS011;53113;45.602;11.904;2022-10-16T00:05:40;50.90;;;35.70;;
66089;SDS011;53113;45.602;11.904;2022-10-16T00:08:08;51.90;;;38.10;;
66089;SDS011;53113;45.602;11.904;2022-10-16T00:10:35;52.40;;;35.80;;
66089;SDS011;53113;45.602;11.904;2022-10-16T00:13:01;50.20;;;35.80;;
66089;SDS011;53113;45.602;11.904;2022-10-16T00:15:27;52.50;;;35.30;;
66089;SDS011;53113;45.602;11.904;2022-10-16T00:17:53;48.30;;;32.40;;
66089;SDS011;53113;45.602;11.904;2022-10-16T00:20:19;48.50;;;31.70;;
66089;SDS011;53113;45.602;11.904;2022-10-16T00:22:44;58.10;;;38.30;;
66089;SDS011;53113;45.602;11.904;2022-10-16T00:25:10;55.70;;;38.20;;
66089;SDS011;53113;45.602;11.904;2022-10-16T00:27:36;58.00;;;38.80;;
66089;SDS011;53113;45.602;11.904;2022-10-16T00:30:01;53.30;;;38.40;;
66089;SDS011;53113;45.602;11.904;2022-10-16T00:32:28;57.40;;;38.60;;
66089;SDS011;53113;45.602;11.904;2022-10-16T00:34:55;53.00;;;37.50;;
66089;SDS011;53113;45.602;11.904;2022-10-16T00:37:21;58.80;;;39.20;;
66089;SDS011;53113;45.602;11.904;2022-10-16T00:39:48;53.20;;;35.50;;
66089;SDS011;53113;45.602;11.904;2022-10-16T00:42:15;52.40;;;36.20;;
66089;SDS011;53113;45.602;11.904;2022-10-16T00:44:49;55.60;;;38.00;;
66089;SDS011;53113;45.602;11.904;2022-10-16T00:47:29;57.50;;;39.20;;
66089;SDS011;53113;45.602;11.904;2022-10-16T00:49:59;56.50;;;37.40;;
66089;SDS011;53113;45.602;11.904;2022-10-16T00:52:31;56.40;;;37.40;;
66089;SDS011;53113;45.602;11.904;2022-10-16T00:54:57;51.50;;;35.50;;
66089;SDS011;53113;45.602;11.904;2022-10-16T00:57:25;41.70;;;29.90;;
66089;SDS011;53113;45.602;11.904;2022-10-16T00:59:51;50.20;;;35.00;;
66089;SDS011;53113;45.602;11.904;2022-10-16T01:02:18;52.50;;;34.70;;
66089;SDS011;53113;45.602;11.904;2022-10-16T01:04:48;49.80;;;32.80;;
66089;SDS011;53113;45.602;11.904;2022-10-16T01:12:59;55.50;;;38.80;;
66089;SDS011;53113;45.602;11.904;2022-10-16T01:15:33;57.00;;;38.50;;
66089;SDS011;53113;45.602;11.904;2022-10-16T01:20:44;60.10;;;40.70;;
66089;SDS011;53113;45.602;11.904;2022-10-16T01:25:53;51.60;;;33.60;;
66089;SDS011;53113;45.602;11.904;2022-10-16T01:28:25;53.80;;;33.90;;
66089;SDS011;53113;45.602;11.904;2022-10-16T01:30:57;55.80;;;37.60;;
66089;SDS011;53113;45.602;11.904;2022-10-16T01:33:28;57.90;;;39.00;;
66089;SDS011;53113;45.602;11.904;2022-10-16T01:36:03;53.40;;;37.00;;
66089;SDS011;53113;45.602;11.904;2022-10-16T01:38:39;52.80;;;37.20;;
66089;SDS011;53113;45.602;11.904;2022-10-16T01:41:49;53.30;;;37.10;;
66089;SDS011;53113;45.602;11.904;2022-10-16T01:44:06;54.40;;;37.00;;
66089;SDS011;53113;45.602;11.904;2022-10-16T01:46:38;54.50;;;36.20;;
66089;SDS011;53113;45.602;11.904;2022-10-16T01:49:06;51.90;;;34.20;;
66089;SDS011;53113;45.602;11.904;2022-10-16T01:51:35;51.30;;;34.00;;
66089;SDS011;53113;45.602;11.904;2022-10-16T01:54:02;50.30;;;34.50;;
66089;SDS011;53113;45.602;11.904;2022-10-16T01:56:33;58.20;;;38.00;;
66089;SDS011;53113;45.602;11.904;2022-10-16T01:59:01;53.80;;;37.10;;
66089;SDS011;53113;45.602;11.904;2022-10-16T02:01:35;50.10;;;34.90;;
66089;SDS011;53113;45.602;11.904;2022-10-16T02:04:10;56.80;;;37.40;;
66089;SDS011;53113;45.602;11.904;2022-10-16T02:06:42;52.30;;;35.10;;
66089;SDS011;53113;45.602;11.904;2022-10-16T02:09:09;57.90;;;39.30;;
66089;SDS011;53113;45.602;11.904;2022-10-16T02:11:35;54.70;;;36.50;;
66089;SDS011;53113;45.602;11.904;2022-10-16T02:14:04;55.90;;;37.20;;
66089;SDS011;53113;45.602;11.904;2022-10-16T02:16:39;59.30;;;38.80;;
66089;SDS011;53113;45.602;11.904;2022-10-16T02:19:08;57.60;;;38.30;;
66089;SDS011;53113;45.602;11.904;2022-10-16T02:21:43;61.10;;;40.20;;
66089;SDS011;53113;45.602;11.904;2022-10-16T02:24:39;60.80;;;39.50;;
66089;SDS011;53113;45.602;11.904;2022-10-16T02:30:44;62.20;;;41.10;;
66089;SDS011;53113;45.602;11.904;2022-10-16T02:32:48;56.50;;;37.10;;
66089;SDS011;53113;45.602;11.904;2022-10-16T02:35:16;60.60;;;38.00;;
66089;SDS011;53113;45.602;11.904;2022-10-16T02:37:45;57.90;;;38.40;;
66089;SDS011;53113;45.602;11.904;2022-10-16T02:40:12;58.80;;;39.90;;
66089;SDS011;53113;45.602;11.904;2022-10-16T02:42:39;61.30;;;39.90;;
66089;SDS011;53113;45.602;11.904;2022-10-16T02:45:07;57.30;;;38.40;;
66089;SDS011;53113;45.602;11.904;2022-10-16T02:47:35;57.50;;;38.00;;
66089;SDS011;53113;45.602;11.904;2022-10-16T02:50:02;59.30;;;39.80;;
66089;SDS011;53113;45.602;11.904;2022-10-16T02:52:29;62.70;;;41.50;;
66089;SDS011;53113;45.602;11.904;2022-10-16T02:54:55;58.90;;;36.40;;
66089;SDS011;53113;45.602;11.904;2022-10-16T02:57:20;57.00;;;37.00;;
66089;SDS011;53113;45.602;11.904;2022-10-16T02:59:46;56.70;;;37.80;;
66089;SDS011;53113;45.602;11.904;2022-10-16T03:02:12;56.90;;;36.60;;
66089;SDS011;53113;45.602;11.904;2022-10-16T03:04:38;58.90;;;38.50;;
66089;SDS011;53113;45.602;11.904;2022-10-16T03:07:03;58.50;;;39.70;;
66089;SDS011;53113;45.602;11.904;2022-10-16T03:09:29;54.60;;;37.60;;
66089;SDS011;53113;45.602;11.904;2022-10-16T03:11:55;59.20;;;40.40;;
66089;SDS011;53113;45.602;11.904;2022-10-16T03:14:21;65.50;;;44.40;;
66089;SDS011;53113;45.602;11.904;2022-10-16T03:16:47;57.60;;;37.00;;
66089;SDS011;53113;45.602;11.904;2022-10-16T03:19:12;57.90;;;37.20;;
66089;SDS011;53113;45.602;11.904;2022-10-16T03:21:38;62.20;;;40.50;;
66089;SDS011;53113;45.602;11.904;2022-10-16T03:24:04;61.70;;;38.70;;
66089;SDS011;53113;45.602;11.904;2022-10-16T03:26:30;63.10;;;41.70;;
66089;SDS011;53113;45.602;11.904;2022-10-16T03:28:56;62.30;;;41.50;;
66089;SDS011;53113;45.602;11.904;2022-10-16T03:31:22;70.40;;;43.80;;
66089;SDS011;53113;45.602;11.904;2022-10-16T03:33:48;66.80;;;42.20;;
66089;SDS011;53113;45.602;11.904;2022-10-16T03:36:13;66.40;;;46.10;;
66089;SDS011;53113;45.602;11.904;2022-10-16T03:38:39;67.80;;;40.30;;
66089;SDS011;53113;45.602;11.904;2022-10-16T03:41:05;65.20;;;41.80;;
66089;SDS011;53113;45.602;11.904;2022-10-16T03:43:33;69.60;;;44.20;;
66089;SDS011;53113;45.602;11.904;2022-10-16T03:45:59;66.20;;;44.10;;
66089;SDS011;53113;45.602;11.904;2022-10-16T03:48:24;67.90;;;44.40;;
66089;SDS011;53113;45.602;11.904;2022-10-16T03:50:50;69.40;;;47.10;;
66089;SDS011;53113;45.602;11.904;2022-10-16T03:53:17;66.30;;;46.60;;
66089;SDS011;53113;45.602;11.904;2022-10-16T03:55:43;70.20;;;46.40;;
66089;SDS011;53113;45.602;11.904;2022-10-16T03:58:09;71.20;;;44.60;;
66089;SDS011;53113;45.602;11.904;2022-10-16T04:00:40;72.20;;;47.20;;
66089;SDS011;53113;45.602;11.904;2022-10-16T04:03:09;65.50;;;40.30;;
66089;SDS011;53113;45.602;11.904;2022-10-16T04:05:36;65.20;;;42.10;;
66089;SDS011;53113;45.602;11.904;2022-10-16T04:08:02;66.10;;;45.10;;
66089;SDS011;53113;45.602;11.904;2022-10-16T04:10:29;68.20;;;44.40;;
66089;SDS011;53113;45.602;11.904;2022-10-16T04:12:54;66.40;;;45.30;;
66089;SDS011;53113;45.602;11.904;2022-10-16T04:15:24;66.20;;;46.60;;
66089;SDS011;53113;45.602;11.904;2022-10-16T04:17:51;73.40;;;47.60;;
66089;SDS011;53113;45.602;11.904;2022-10-16T04:20:17;67.50;;;46.10;;
66089;SDS011;53113;45.602;11.904;2022-10-16T04:22:43;68.70;;;46.70;;
66089;SDS011;53113;45.602;11.904;2022-10-16T04:25:10;64.50;;;40.60;;
66089;SDS011;53113;45.602;11.904;2022-10-16T04:27:37;63.00;;;41.80;;
66089;SDS011;53113;45.602;11.904;2022-10-16T04:30:04;64.80;;;41.90;;
66089;SDS011;53113;45.602;11.904;2022-10-16T04:32:32;71.70;;;45.00;;
66089;SDS011;53113;45.602;11.904;2022-10-16T04:34:57;63.30;;;43.00;;
66089;SDS011;53113;45.602;11.904;2022-10-16T04:37:24;66.80;;;45.20;;
66089;SDS011;53113;45.602;11.904;2022-10-16T04:39:51;67.10;;;43.40;;
66089;SDS011;53113;45.602;11.904;2022-10-16T04:42:18;66.80;;;44.30;;
66089;SDS011;53113;45.602;11.904;2022-10-16T04:44:44;69.80;;;44.10;;
66089;SDS011;53113;45.602;11.904;2022-10-16T04:47:10;65.80;;;40.70;;
66089;SDS011;53113;45.602;11.904;2022-10-16T04:49:36;60.90;;;39.50;;
66089;SDS011;53113;45.602;11.904;2022-10-16T04:52:02;63.50;;;43.30;;
66089;SDS011;53113;45.602;11.904;2022-10-16T04:54:28;68.60;;;44.60;;
66089;SDS011;53113;45.602;11.904;2022-10-16T04:56:54;64.50;;;42.60;;
66089;SDS011;53113;45.602;11.904;2022-10-16T04:59:19;64.50;;;41.20;;
66089;SDS011;53113;45.602;11.904;2022-10-16T05:01:46;65.10;;;43.10;;
66089;SDS011;53113;45.602;11.904;2022-10-16T05:04:11;65.10;;;41.80;;
66089;SDS011;53113;45.602;11.904;2022-10-16T05:06:37;64.70;;;42.10;;
66089;SDS011;53113;45.602;11.904;2022-10-16T05:09:04;61.50;;;40.60;;
66089;SDS011;53113;45.602;11.904;2022-10-16T05:11:31;61.60;;;39.30;;
66089;SDS011;53113;45.602;11.904;2022-10-16T05:13:57;61.30;;;38.40;;
66089;SDS011;53113;45.602;11.904;2022-10-16T05:16:23;63.70;;;41.60;;
66089;SDS011;53113;45.602;11.904;2022-10-16T05:18:48;65.50;;;43.70;;
66089;SDS011;53113;45.602;11.904;2022-10-16T05:21:14;61.30;;;41.70;;
66089;SDS011;53113;45.602;11.904;2022-10-16T05:23:40;66.50;;;43.80;;
66089;SDS011;53113;45.602;11.904;2022-10-16T05:26:06;64.00;;;42.00;;
66089;SDS011;53113;45.602;11.904;2022-10-16T05:28:32;66.60;;;43.20;;
66089;SDS011;53113;45.602;11.904;2022-10-16T05:30:57;63.90;;;41.60;;
66089;SDS011;53113;45.602;11.904;2022-10-16T05:33:25;58.30;;;38.20;;
66089;SDS011;53113;45.602;11.904;2022-10-16T05:35:51;53.10;;;33.80;;
66089;SDS011;53113;45.602;11.904;2022-10-16T05:38:17;59.70;;;38.20;;
66089;SDS011;53113;45.602;11.904;2022-10-16T05:40:50;60.10;;;39.60;;
66089;SDS011;53113;45.602;11.904;2022-10-16T05:43:17;61.00;;;38.50;;
66089;SDS011;53113;45.602;11.904;2022-10-16T05:45:43;62.90;;;40.40;;
66089;SDS011;53113;45.602;11.904;2022-10-16T05:48:09;60.60;;;39.60;;
66089;SDS011;53113;45.602;11.904;2022-10-16T05:50:34;59.80;;;40.20;;
66089;SDS011;53113;45.602;11.904;2022-10-16T05:53:00;61.70;;;40.80;;
66089;SDS011;53113;45.602;11.904;2022-10-16T05:55:26;60.40;;;37.20;;
66089;SDS011;53113;45.602;11.904;2022-10-16T05:57:53;57.20;;;37.10;;
66089;SDS011;53113;45.602;11.904;2022-10-16T06:02:46;58.10;;;38.90;;
66089;SDS011;53113;45.602;11.904;2022-10-16T06:05:12;58.50;;;38.30;;
66089;SDS011;53113;45.602;11.904;2022-10-16T06:07:37;58.10;;;38.70;;
66089;SDS011;53113;45.602;11.904;2022-10-16T06:10:03;57.40;;;40.30;;
66089;SDS011;53113;45.602;11.904;2022-10-16T06:12:30;58.60;;;39.00;;
66089;SDS011;53113;45.602;11.904;2022-10-16T06:14:56;58.50;;;39.50;;
66089;SDS011;53113;45.602;11.904;2022-10-16T06:17:22;50.60;;;33.20;;
66089;SDS011;53113;45.602;11.904;2022-10-16T06:19:47;53.00;;;36.00;;
66089;SDS011;53113;45.602;11.904;2022-10-16T06:22:13;56.30;;;38.80;;
66089;SDS011;53113;45.602;11.904;2022-10-16T06:24:39;56.00;;;39.40;;
66089;SDS011;53113;45.602;11.904;2022-10-16T06:27:05;55.50;;;37.70;;
66089;SDS011;53113;45.602;11.904;2022-10-16T06:29:31;58.40;;;39.10;;
66089;SDS011;53113;45.602;11.904;2022-10-16T06:31:56;57.50;;;37.80;;
66089;SDS011;53113;45.602;11.904;2022-10-16T06:34:22;56.70;;;38.00;;
66089;SDS011;53113;45.602;11.904;2022-10-16T06:36:48;56.50;;;35.50;;
66089;SDS011;53113;45.602;11.904;2022-10-16T06:39:14;55.20;;;37.30;;
66089;SDS011;53113;45.602;11.904;2022-10-16T06:41:39;55.60;;;37.20;;
66089;SDS011;53113;45.602;11.904;2022-10-16T06:44:05;60.40;;;40.00;;
66089;SDS011;53113;45.602;11.904;2022-10-16T06:46:33;56.80;;;39.20;;
66089;SDS011;53113;45.602;11.904;2022-10-16T06:48:59;56.30;;;38.50;;
66089;SDS011;53113;45.602;11.904;2022-10-16T06:51:25;57.70;;;38.60;;
66089;SDS011;53113;45.602;11.904;2022-10-16T06:53:52;54.50;;;38.40;;
66089;SDS011;53113;45.602;11.904;2022-10-16T06:56:23;55.90;;;38.60;;
66089;SDS011;53113;45.602;11.904;2022-10-16T06:58:51;52.10;;;33.70;;
66089;SDS011;53113;45.602;11.904;2022-10-16T07:01:19;56.10;;;37.10;;
66089;SDS011;53113;45.602;11.904;2022-10-16T07:03:46;57.60;;;38.10;;
66089;SDS011;53113;45.602;11.904;2022-10-16T07:06:14;53.30;;;37.30;;
66089;SDS011;53113;45.602;11.904;2022-10-16T07:08:42;55.60;;;39.80;;
66089;SDS011;53113;45.602;11.904;2022-10-16T07:11:10;55.30;;;37.60;;
66089;SDS011;53113;45.602;11.904;2022-10-16T07:13:38;54.70;;;39.00;;
66089;SDS011;53113;45.602;11.904;2022-10-16T07:16:05;55.80;;;39.60;;
66089;SDS011;53113;45.602;11.904;2022-10-16T07:18:38;55.70;;;39.50;;
66089;SDS011;53113;45.602;11.904;2022-10-16T07:21:08;58.20;;;39.70;;
66089;SDS011;53113;45.602;11.904;2022-10-16T07:23:34;56.10;;;39.20;;
66089;SDS011;53113;45.602;11.904;2022-10-16T07:25:59;50.20;;;34.10;;
66089;SDS011;53113;45.602;11.904;2022-10-16T07:28:26;51.20;;;36.00;;
66089;SDS011;53113;45.602;11.904;2022-10-16T07:30:52;56.20;;;37.70;;
66089;SDS011;53113;45.602;11.904;2022-10-16T07:33:18;53.30;;;38.50;;
66089;SDS011;53113;45.602;11.904;2022-10-16T07:35:47;56.00;;;39.60;;
66089;SDS011;53113;45.602;11.904;2022-10-16T07:38:17;57.40;;;39.90;;
66089;SDS011;53113;45.602;11.904;2022-10-16T07:40:43;55.50;;;39.00;;
66089;SDS011;53113;45.602;11.904;2022-10-16T07:43:09;52.70;;;39.50;;
66089;SDS011;53113;45.602;11.904;2022-10-16T07:45:35;54.50;;;39.50;;
66089;SDS011;53113;45.602;11.904;2022-10-16T07:48:02;54.80;;;39.80;;
66089;SDS011;53113;45.602;11.904;2022-10-16T07:50:28;54.80;;;40.40;;
66089;SDS011;53113;45.602;11.904;2022-10-16T07:52:54;52.10;;;39.10;;
66089;SDS011;53113;45.602;11.904;2022-10-16T07:55:20;58.70;;;42.10;;
66089;SDS011;53113;45.602;11.904;2022-10-16T07:57:45;57.30;;;41.80;;
66089;SDS011;53113;45.602;11.904;2022-10-16T08:00:11;56.80;;;40.40;;
66089;SDS011;53113;45.602;11.904;2022-10-16T08:02:39;58.40;;;41.10;;
66089;SDS011;53113;45.602;11.904;2022-10-16T08:05:06;51.20;;;35.90;;
66089;SDS011;53113;45.602;11.904;2022-10-16T08:07:32;50.70;;;36.60;;
66089;SDS011;53113;45.602;11.904;2022-10-16T08:09:58;53.00;;;38.50;;
66089;SDS011;53113;45.602;11.904;2022-10-16T08:12:25;56.60;;;39.60;;
66089;SDS011;53113;45.602;11.904;2022-10-16T08:14:51;52.90;;;40.00;;
66089;SDS011;53113;45.602;11.904;2022-10-16T08:17:17;56.70;;;41.00;;
66089;SDS011;53113;45.602;11.904;2022-10-16T08:19:45;54.50;;;40.10;;
66089;SDS011;53113;45.602;11.904;2022-10-16T08:22:12;54.50;;;38.70;;
66089;SDS011;53113;45.602;11.904;2022-10-16T08:24:39;52.90;;;39.70;;
66089;SDS011;53113;45.602;11.904;2022-10-16T08:27:06;53.30;;;39.70;;
66089;SDS011;53113;45.602;11.904;2022-10-16T08:29:34;56.60;;;41.50;;
66089;SDS011;53113;45.602;11.904;2022-10-16T08:32:00;54.30;;;39.90;;
66089;SDS011;53113;45.602;11.904;2022-10-16T08:34:26;55.40;;;41.90;;
66089;SDS011;53113;45.602;11.904;2022-10-16T08:36:55;54.10;;;40.30;;
66089;SDS011;53113;45.602;11.904;2022-10-16T08:39:21;58.80;;;42.50;;
66089;SDS011;53113;45.602;11.904;2022-10-16T08:41:55;56.10;;;41.40;;
66089;SDS011;53113;45.602;11.904;2022-10-16T08:49:37;53.70;;;39.10;;
66089;SDS011;53113;45.602;11.904;2022-10-16T08:52:10;54.20;;;39.00;;
66089;SDS011;53113;45.602;11.904;2022-10-16T08:54:40;52.40;;;39.70;;
66089;SDS011;53113;45.602;11.904;2022-10-16T08:57:20;53.30;;;40.50;;
66089;SDS011;53113;45.602;11.904;2022-10-16T08:59:47;56.00;;;39.20;;
66089;SDS011;53113;45.602;11.904;2022-10-16T09:07:48;50.80;;;38.30;;
66089;SDS011;53113;45.602;11.904;2022-10-16T09:10:52;50.30;;;38.00;;
66089;SDS011;53113;45.602;11.904;2022-10-16T09:21:25;51.50;;;40.30;;
66089;SDS011;53113;45.602;11.904;2022-10-16T09:23:59;48.10;;;37.90;;
66089;SDS011;53113;45.602;11.904;2022-10-16T09:26:35;49.00;;;38.10;;
66089;SDS011;53113;45.602;11.904;2022-10-16T09:29:02;52.70;;;39.70;;
66089;SDS011;53113;45.602;11.904;2022-10-16T09:31:28;49.10;;;38.50;;
66089;SDS011;53113;45.602;11.904;2022-10-16T09:33:55;50.80;;;37.80;;
66089;SDS011;53113;45.602;11.904;2022-10-16T09:36:25;46.00;;;36.40;;
66089;SDS011;53113;45.602;11.904;2022-10-16T09:39:05;46.50;;;37.30;;
66089;SDS011;53113;45.602;11.904;2022-10-16T09:41:34;47.10;;;36.50;;
66089;SDS011;53113;45.602;11.904;2022-10-16T09:44:02;49.40;;;38.10;;
66089;SDS011;53113;45.602;11.904;2022-10-16T09:46:32;45.30;;;36.60;;
66089;SDS011;53113;45.602;11.904;2022-10-16T09:49:02;45.10;;;35.50;;
66089;SDS011;53113;45.602;11.904;2022-10-16T09:51:34;40.50;;;31.60;;
66089;SDS011;53113;45.602;11.904;2022-10-16T09:56:34;45.50;;;34.00;;
66089;SDS011;53113;45.602;11.904;2022-10-16T09:59:12;46.50;;;35.70;;
66089;SDS011;53113;45.602;11.904;2022-10-16T10:01:44;44.00;;;33.40;;
66089;SDS011;53113;45.602;11.904;2022-10-16T10:04:16;41.20;;;32.30;;
66089;SDS011;53113;45.602;11.904;2022-10-16T10:06:50;35.70;;;27.30;;
66089;SDS011;53113;45.602;11.904;2022-10-16T10:12:14;37.80;;;31.00;;
66089;SDS011;53113;45.602;11.904;2022-10-16T10:14:47;42.60;;;34.00;;
66089;SDS011;53113;45.602;11.904;2022-10-16T10:19:48;39.70;;;30.90;;
66089;SDS011;53113;45.602;11.904;2022-10-16T10:30:10;37.30;;;28.40;;
66089;SDS011;53113;45.602;11.904;2022-10-16T10:32:53;39.30;;;28.70;;
66089;SDS011;53113;45.602;11.904;2022-10-16T10:38:27;37.50;;;30.30;;
66089;SDS011;53113;45.602;11.904;2022-10-16T10:44:07;34.50;;;27.90;;
66089;SDS011;53113;45.602;11.904;2022-10-16T10:49:57;32.40;;;26.20;;
66089;SDS011;53113;45.602;11.904;2022-10-16T11:00:21;34.90;;;26.40;;
66089;SDS011;53113;45.602;11.904;2022-10-16T11:10:48;34.40;;;26.20;;
66089;SDS011;53113;45.602;11.904;2022-10-16T11:16:34;34.70;;;26.40;;
66089;SDS011;53113;45.602;11.904;2022-10-16T11:21:47;31.60;;;25.60;;
66089;SDS011;53113;45.602;11.904;2022-10-16T11:24:21;34.70;;;25.30;;
66089;SDS011;53113;45.602;11.904;2022-10-16T11:26:56;33.20;;;25.60;;
66089;SDS011;53113;45.602;11.904;2022-10-16T11:29:28;29.70;;;24.50;;
66089;SDS011;53113;45.602;11.904;2022-10-16T11:32:01;33.60;;;25.50;;
66089;SDS011;53113;45.602;11.904;2022-10-16T11:37:19;34.20;;;26.90;;
66089;SDS011;53113;45.602;11.904;2022-10-16T11:39:50;30.40;;;24.50;;
66089;SDS011;53113;45.602;11.904;2022-10-16T11:42:21;31.70;;;25.40;;
66089;SDS011;53113;45.602;11.904;2022-10-16T11:44:57;42.00;;;25.60;;
66089;SDS011;53113;45.602;11.904;2022-10-16T11:53:13;30.10;;;24.50;;
66089;SDS011;53113;45.602;11.904;2022-10-16T11:55:55;30.00;;;25.30;;
66089;SDS011;53113;45.602;11.904;2022-10-16T12:03:38;30.50;;;25.90;;
66089;SDS011;53113;45.602;11.904;2022-10-16T12:08:33;28.60;;;25.10;;
66089;SDS011;53113;45.602;11.904;2022-10-16T12:11:19;28.20;;;23.40;;
66089;SDS011;53113;45.602;11.904;2022-10-16T12:13:51;28.00;;;24.70;;
66089;SDS011;53113;45.602;11.904;2022-10-16T12:16:29;30.50;;;25.30;;
66089;SDS011;53113;45.602;11.904;2022-10-16T12:21:38;27.50;;;23.40;;
66089;SDS011;53113;45.602;11.904;2022-10-16T12:24:04;30.20;;;24.80;;
66089;SDS011;53113;45.602;11.904;2022-10-16T12:26:34;29.10;;;23.30;;
66089;SDS011;53113;45.602;11.904;2022-10-16T12:32:18;28.10;;;24.00;;
66089;SDS011;53113;45.602;11.904;2022-10-16T12:34:51;27.60;;;24.60;;
66089;SDS011;53113;45.602;11.904;2022-10-16T12:37:26;32.10;;;25.10;;
66089;SDS011;53113;45.602;11.904;2022-10-16T12:39:56;33.10;;;27.10;;
66089;SDS011;53113;45.602;11.904;2022-10-16T12:42:31;30.90;;;26.10;;
66089;SDS011;53113;45.602;11.904;2022-10-16T12:44:59;32.10;;;26.70;;
66089;SDS011;53113;45.602;11.904;2022-10-16T12:49:55;31.50;;;25.50;;
66089;SDS011;53113;45.602;11.904;2022-10-16T12:52:31;30.60;;;27.30;;
66089;SDS011;53113;45.602;11.904;2022-10-16T12:55:02;31.70;;;24.20;;
66089;SDS011;53113;45.602;11.904;2022-10-16T13:25:17;33.80;;;26.10;;
66089;SDS011;53113;45.602;11.904;2022-10-16T13:28:01;31.60;;;26.30;;
66089;SDS011;53113;45.602;11.904;2022-10-16T13:31:12;31.40;;;24.40;;
66089;SDS011;53113;45.602;11.904;2022-10-16T13:33:24;28.90;;;25.40;;
66089;SDS011;53113;45.602;11.904;2022-10-16T13:35:59;30.50;;;25.50;;
66089;SDS011;53113;45.602;11.904;2022-10-16T13:38:26;29.90;;;24.40;;
66089;SDS011;53113;45.602;11.904;2022-10-16T13:40:56;30.30;;;25.60;;
66089;SDS011;53113;45.602;11.904;2022-10-16T13:46:02;33.00;;;27.40;;
66089;SDS011;53113;45.602;11.904;2022-10-16T13:48:37;30.50;;;26.40;;
66089;SDS011;53113;45.602;11.904;2022-10-16T13:51:05;30.90;;;25.50;;
66089;SDS011;53113;45.602;11.904;2022-10-16T13:53:36;29.00;;;24.70;;
66089;SDS011;53113;45.602;11.904;2022-10-16T13:56:05;29.70;;;25.10;;
66089;SDS011;53113;45.602;11.904;2022-10-16T13:58:35;32.90;;;26.30;;
66089;SDS011;53113;45.602;11.904;2022-10-16T14:01:02;29.70;;;24.80;;
66089;SDS011;53113;45.602;11.904;2022-10-16T14:03:32;30.20;;;24.30;;
66089;SDS011;53113;45.602;11.904;2022-10-16T14:06:01;28.80;;;24.00;;
66089;SDS011;53113;45.602;11.904;2022-10-16T14:08:29;29.30;;;23.90;;
66089;SDS011;53113;45.602;11.904;2022-10-16T14:10:57;28.80;;;25.60;;
66089;SDS011;53113;45.602;11.904;2022-10-16T14:13:31;30.00;;;24.60;;
66089;SDS011;53113;45.602;11.904;2022-10-16T14:16:09;29.40;;;24.30;;
66089;SDS011;53113;45.602;11.904;2022-10-16T14:18:41;31.10;;;24.50;;
66089;SDS011;53113;45.602;11.904;2022-10-16T14:21:12;30.70;;;24.70;;
66089;SDS011;53113;45.602;11.904;2022-10-16T14:23:41;29.60;;;24.60;;
66089;SDS011;53113;45.602;11.904;2022-10-16T14:28:35;31.20;;;26.20;;
66089;SDS011;53113;45.602;11.904;2022-10-16T14:31:16;30.80;;;24.50;;
66089;SDS011;53113;45.602;11.904;2022-10-16T14:33:53;31.10;;;25.90;;
66089;SDS011;53113;45.602;11.904;2022-10-16T14:36:19;32.80;;;26.10;;
66089;SDS011;53113;45.602;11.904;2022-10-16T14:41:46;30.40;;;24.50;;
66089;SDS011;53113;45.602;11.904;2022-10-16T14:44:13;30.80;;;25.70;;
66089;SDS011;53113;45.602;11.904;2022-10-16T14:46:40;30.30;;;25.20;;
66089;SDS011;53113;45.602;11.904;2022-10-16T14:51:36;29.60;;;23.70;;
66089;SDS011;53113;45.602;11.904;2022-10-16T14:54:03;29.50;;;25.20;;
66089;SDS011;53113;45.602;11.904;2022-10-16T14:56:31;31.20;;;25.70;;
66089;SDS011;53113;45.602;11.904;2022-10-16T14:59:07;28.90;;;24.50;;
66089;SDS011;53113;45.602;11.904;2022-10-16T15:01:39;29.50;;;24.20;;
66089;SDS011;53113;45.602;11.904;2022-10-16T15:04:07;31.40;;;25.70;;
66089;SDS011;53113;45.602;11.904;2022-10-16T15:06:34;28.80;;;25.00;;
66089;SDS011;53113;45.602;11.904;2022-10-16T15:09:00;31.10;;;26.30;;
66089;SDS011;53113;45.602;11.904;2022-10-16T15:11:26;28.80;;;23.40;;
66089;SDS011;53113;45.602;11.904;2022-10-16T15:13:52;29.30;;;23.40;;
66089;SDS011;53113;45.602;11.904;2022-10-16T15:16:17;30.40;;;25.50;;
66089;SDS011;53113;45.602;11.904;2022-10-16T15:18:43;30.50;;;25.10;;
66089;SDS011;53113;45.602;11.904;2022-10-16T15:21:26;32.10;;;27.30;;
66089;SDS011;53113;45.602;11.904;2022-10-16T15:23:54;32.40;;;26.10;;
66089;SDS011;53113;45.602;11.904;2022-10-16T15:26:22;31.30;;;24.90;;
66089;SDS011;53113;45.602;11.904;2022-10-16T15:28:50;33.00;;;27.30;;
66089;SDS011;53113;45.602;11.904;2022-10-16T15:31:16;30.80;;;24.90;;
66089;SDS011;53113;45.602;11.904;2022-10-16T15:33:41;32.50;;;26.40;;
66089;SDS011;53113;45.602;11.904;2022-10-16T15:36:07;31.90;;;26.10;;
66089;SDS011;53113;45.602;11.904;2022-10-16T15:38:33;33.40;;;26.80;;
66089;SDS011;53113;45.602;11.904;2022-10-16T15:40:59;33.50;;;27.50;;
66089;SDS011;53113;45.602;11.904;2022-10-16T15:43:25;34.40;;;26.90;;
66089;SDS011;53113;45.602;11.904;2022-10-16T15:46:11;31.00;;;25.70;;
66089;SDS011;53113;45.602;11.904;2022-10-16T15:48:39;29.40;;;24.50;;
66089;SDS011;53113;45.602;11.904;2022-10-16T15:51:06;34.60;;;27.60;;
66089;SDS011;53113;45.602;11.904;2022-10-16T15:53:33;32.00;;;25.40;;
66089;SDS011;53113;45.602;11.904;2022-10-16T15:56:03;33.20;;;27.20;;
66089;SDS011;53113;45.602;11.904;2022-10-16T15:58:30;33.10;;;27.30;;
66089;SDS011;53113;45.602;11.904;2022-10-16T16:00:57;32.80;;;26.20;;
66089;SDS011;53113;45.602;11.904;2022-10-16T16:03:27;33.30;;;26.90;;
66089;SDS011;53113;45.602;11.904;2022-10-16T16:05:54;32.80;;;26.80;;
66089;SDS011;53113;45.602;11.904;2022-10-16T16:08:20;34.30;;;26.30;;
66089;SDS011;53113;45.602;11.904;2022-10-16T16:10:59;32.20;;;27.20;;
66089;SDS011;53113;45.602;11.904;2022-10-16T16:13:26;34.00;;;27.00;;
66089;SDS011;53113;45.602;11.904;2022-10-16T16:15:53;32.10;;;26.70;;
66089;SDS011;53113;45.602;11.904;2022-10-16T16:18:19;35.30;;;27.90;;
66089;SDS011;53113;45.602;11.904;2022-10-16T16:20:46;36.30;;;28.90;;
66089;SDS011;53113;45.602;11.904;2022-10-16T16:23:12;36.40;;;29.30;;
66089;SDS011;53113;45.602;11.904;2022-10-16T16:25:38;35.80;;;29.90;;
66089;SDS011;53113;45.602;11.904;2022-10-16T16:28:04;36.40;;;30.40;;
66089;SDS011;53113;45.602;11.904;2022-10-16T16:30:29;36.20;;;29.10;;
66089;SDS011;53113;45.602;11.904;2022-10-16T16:32:55;37.60;;;29.50;;
66089;SDS011;53113;45.602;11.904;2022-10-16T16:35:21;36.70;;;29.80;;
66089;SDS011;53113;45.602;11.904;2022-10-16T16:37:47;38.10;;;29.40;;
66089;SDS011;53113;45.602;11.904;2022-10-16T16:40:13;36.90;;;29.40;;
66089;SDS011;53113;45.602;11.904;2022-10-16T16:42:39;35.00;;;27.70;;